Time;durP1;ratioP1;P1;durP2;ratioP2;P2;SDS_P1;SDS_P2;PMS_P1;PMS_P2;Temp;Humidity;BMP_temperature;BMP_pressure;BME280_temperature;BME280_humidity;BME280_pressure;Samples;Min_cycle;Max_cycle;Signal;HPM_P1;HPM_P2
2021/08/26 00:06:50;;;;;;;8.60;4.80;;;;;;;;;;5069820;28;20060;-63
2021/08/26 00:09:17;;;;;;;8.20;3.58;;;;;;;;;;5057105;28;20072;-63
2021/08/26 00:11:44;;;;;;;10.63;5.03;;;;;;;;;;5057800;28;20529;-63
2021/08/26 00:14:12;;;;;;;10.82;4.72;;;;;;;;;;5057598;28;20079;-64
2021/08/26 00:16:40;;;;;;;10.75;3.40;;;;;;;;;;5057563;28;20114;-62
2021/08/26 00:19:07;;;;;;;11.57;4.32;;;;;;;;;;5053257;28;20044;-62
2021/08/26 00:21:34;;;;;;;10.32;4.43;;;;;;;;;;5056842;28;20067;-63
2021/08/26 00:24:00;;;;;;;12.18;4.70;;;;;;;;;;5057479;28;20075;-62
2021/08/26 00:26:26;;;;;;;9.75;4.78;;;;;;;;;;5057462;28;20052;-64
2021/08/26 00:28:53;;;;;;;12.30;4.80;;;;;;;;;;5058902;28;20095;-64
2021/08/26 00:31:19;;;;;;;9.55;5.45;;;;;;;;;;5054948;28;20072;-64
2021/08/26 00:33:45;;;;;;;9.95;4.82;;;;;;;;;;5055011;28;20052;-63
2021/08/26 00:36:12;;;;;;;11.45;4.70;;;;;;;;;;5057206;28;20075;-62
2021/08/26 00:38:38;;;;;;;10.35;4.57;;;;;;;;;;5056907;28;20494;-62
2021/08/26 00:41:04;;;;;;;8.32;4.15;;;;;;;;;;5057286;28;20387;-61
2021/08/26 00:43:32;;;;;;;9.50;5.03;;;;;;;;;;5054591;28;20060;-64
2021/08/26 00:45:58;;;;;;;11.77;5.15;;;;;;;;;;5069321;28;20091;-63
2021/08/26 00:48:25;;;;;;;9.98;4.93;;;;;;;;;;5056825;28;20049;-64
2021/08/26 00:50:54;;;;;;;10.13;5.20;;;;;;;;;;5057289;28;20064;-63
2021/08/26 00:53:24;;;;;;;12.30;5.47;;;;;;;;;;5058118;28;20040;-65
2021/08/26 00:55:51;;;;;;;8.95;4.82;;;;;;;;;;5058342;28;20056;-64
2021/08/26 00:58:17;;;;;;;10.05;4.47;;;;;;;;;;5054206;28;20082;-64
2021/08/26 01:00:46;;;;;;;10.38;5.10;;;;;;;;;;5054735;28;20045;-63
2021/08/26 01:03:13;;;;;;;10.38;4.68;;;;;;;;;;5056911;28;20052;-65
2021/08/26 01:05:48;;;;;;;7.65;3.70;;;;;;;;;;5057119;28;20491;-65
2021/08/26 01:08:14;;;;;;;9.98;4.43;;;;;;;;;;5060451;28;20045;-64
2021/08/26 01:10:43;;;;;;;10.57;5.00;;;;;;;;;;5060897;28;20049;-65
2021/08/26 01:13:09;;;;;;;14.05;5.03;;;;;;;;;;5057067;28;20119;-64
2021/08/26 01:15:36;;;;;;;13.00;5.82;;;;;;;;;;5058515;28;20053;-63
2021/08/26 01:18:03;;;;;;;9.82;4.82;;;;;;;;;;5061119;28;20503;-65
2021/08/26 01:20:29;;;;;;;14.13;4.93;;;;;;;;;;5060771;28;20076;-63
2021/08/26 01:22:56;;;;;;;10.95;4.43;;;;;;;;;;5060147;28;20049;-63
2021/08/26 01:25:24;;;;;;;13.98;4.80;;;;;;;;;;5072423;28;20041;-63
2021/08/26 01:27:56;;;;;;;10.13;4.07;;;;;;;;;;5058111;28;20126;-63
2021/08/26 01:30:24;;;;;;;13.20;5.25;;;;;;;;;;5060189;28;20414;-63
2021/08/26 01:32:52;;;;;;;12.63;6.07;;;;;;;;;;5060563;28;20148;-60
2021/08/26 01:35:19;;;;;;;15.32;5.80;;;;;;;;;;5060859;28;20068;-58
2021/08/26 01:37:46;;;;;;;13.48;6.03;;;;;;;;;;5070719;28;20044;-60
2021/08/26 01:40:13;;;;;;;8.90;5.47;;;;;;;;;;5056924;28;20045;-60
2021/08/26 01:42:39;;;;;;;11.30;5.47;;;;;;;;;;5058426;28;20076;-60
2021/08/26 01:45:07;;;;;;;11.50;5.57;;;;;;;;;;5060981;28;20045;-59
2021/08/26 01:47:34;;;;;;;10.70;5.22;;;;;;;;;;5060186;28;20118;-58
2021/08/26 01:50:01;;;;;;;14.55;5.68;;;;;;;;;;5060114;28;20083;-59
2021/08/26 01:52:28;;;;;;;11.80;5.72;;;;;;;;;;5058660;28;20051;-59
2021/08/26 01:55:02;;;;;;;12.35;5.60;;;;;;;;;;5060724;28;20079;-59
2021/08/26 01:57:29;;;;;;;12.43;5.20;;;;;;;;;;5063216;28;20479;-60
2021/08/26 01:59:56;;;;;;;11.02;5.25;;;;;;;;;;5059974;28;20076;-60
2021/08/26 02:02:22;;;;;;;10.88;5.55;;;;;;;;;;5063383;28;20085;-59
2021/08/26 02:04:49;;;;;;;9.02;4.80;;;;;;;;;;5069722;28;20487;-59
2021/08/26 02:07:15;;;;;;;5.95;2.92;;;;;;;;;;5056899;28;20482;-59
2021/08/26 02:09:42;;;;;;;11.48;5.32;;;;;;;;;;5057816;28;20041;-60
2021/08/26 02:12:08;;;;;;;15.18;5.75;;;;;;;;;;5069567;28;20071;-58
2021/08/26 02:14:34;;;;;;;15.63;5.85;;;;;;;;;;5063522;28;20049;-60
2021/08/26 02:17:01;;;;;;;11.98;6.07;;;;;;;;;;5059604;28;20045;-60
2021/08/26 02:19:27;;;;;;;11.95;5.68;;;;;;;;;;5056943;28;20418;-60
2021/08/26 02:21:54;;;;;;;18.60;6.40;;;;;;;;;;5056657;28;20045;-60
2021/08/26 02:24:20;;;;;;;15.07;6.05;;;;;;;;;;5059275;28;20051;-61
2021/08/26 02:26:47;;;;;;;12.18;6.05;;;;;;;;;;5059451;28;20092;-60
2021/08/26 02:29:13;;;;;;;13.80;5.28;;;;;;;;;;5059586;28;20045;-59
2021/08/26 02:31:39;;;;;;;23.98;7.68;;;;;;;;;;5059520;28;20047;-60
2021/08/26 02:34:05;;;;;;;11.13;5.43;;;;;;;;;;5054954;28;20086;-60
2021/08/26 02:36:32;;;;;;;18.70;5.55;;;;;;;;;;5070452;28;20051;-60
2021/08/26 02:38:58;;;;;;;12.82;6.32;;;;;;;;;;5059469;28;20403;-60
2021/08/26 02:41:25;;;;;;;12.40;6.35;;;;;;;;;;5062928;28;20099;-60
2021/08/26 02:43:51;;;;;;;11.88;5.82;;;;;;;;;;5069137;28;20037;-59
2021/08/26 02:46:17;;;;;;;12.88;6.68;;;;;;;;;;5056555;28;20037;-60
2021/08/26 02:48:44;;;;;;;13.48;6.68;;;;;;;;;;5056444;28;20049;-60
2021/08/26 02:51:10;;;;;;;13.20;5.28;;;;;;;;;;5066555;28;20045;-59
2021/08/26 02:53:36;;;;;;;14.05;5.95;;;;;;;;;;5062572;28;20045;-59
2021/08/26 02:56:03;;;;;;;15.10;6.35;;;;;;;;;;5058249;28;20068;-60
2021/08/26 02:58:29;;;;;;;13.55;6.05;;;;;;;;;;5056431;28;20437;-59
2021/08/26 03:00:56;;;;;;;11.80;5.28;;;;;;;;;;5070879;28;20053;-59
2021/08/26 03:03:22;;;;;;;10.93;5.90;;;;;;;;;;5058199;28;20048;-59
2021/08/26 03:05:48;;;;;;;12.00;5.63;;;;;;;;;;5054731;28;20403;-59
2021/08/26 03:08:15;;;;;;;11.02;5.63;;;;;;;;;;5058755;28;20052;-59
2021/08/26 03:10:42;;;;;;;12.35;6.15;;;;;;;;;;5058713;28;20071;-60
2021/08/26 03:13:08;;;;;;;11.95;5.65;;;;;;;;;;5054567;28;20060;-59
2021/08/26 03:15:35;;;;;;;12.70;5.80;;;;;;;;;;5057335;28;20502;-59
2021/08/26 03:18:01;;;;;;;16.67;7.47;;;;;;;;;;5052855;28;20096;-59
2021/08/26 03:20:27;;;;;;;13.68;6.63;;;;;;;;;;5052351;28;20048;-59
2021/08/26 03:22:54;;;;;;;12.00;5.88;;;;;;;;;;5052125;28;20407;-59
2021/08/26 03:25:20;;;;;;;13.23;6.78;;;;;;;;;;5055453;28;20068;-59
2021/08/26 03:27:47;;;;;;;14.40;6.28;;;;;;;;;;5055569;28;20052;-59
2021/08/26 03:30:13;;;;;;;12.50;7.03;;;;;;;;;;5057681;28;20071;-59
2021/08/26 03:32:40;;;;;;;14.77;7.68;;;;;;;;;;5057745;28;20079;-58
2021/08/26 03:35:06;;;;;;;14.50;7.93;;;;;;;;;;5057942;28;20044;-58
2021/08/26 03:37:33;;;;;;;9.50;4.72;;;;;;;;;;5057452;28;20067;-59
2021/08/26 03:39:59;;;;;;;12.52;7.10;;;;;;;;;;5058689;28;20491;-59
2021/08/26 03:42:26;;;;;;;22.27;7.65;;;;;;;;;;5060832;28;20078;-59
2021/08/26 03:44:52;;;;;;;19.60;8.43;;;;;;;;;;5059409;28;20419;-59
2021/08/26 03:47:19;;;;;;;18.20;7.13;;;;;;;;;;5057892;28;20079;-59
2021/08/26 03:49:45;;;;;;;17.45;7.72;;;;;;;;;;5058093;28;20445;-59
2021/08/26 03:52:11;;;;;;;14.18;7.40;;;;;;;;;;5054310;28;20048;-59
2021/08/26 03:54:38;;;;;;;15.25;7.38;;;;;;;;;;5056416;28;20601;-60
2021/08/26 03:57:04;;;;;;;16.85;7.13;;;;;;;;;;5058086;28;20072;-59
2021/08/26 03:59:31;;;;;;;14.68;6.95;;;;;;;;;;5060846;28;20106;-59
2021/08/26 04:01:57;;;;;;;16.35;7.35;;;;;;;;;;5062831;28;20501;-59
2021/08/26 04:04:23;;;;;;;18.15;7.97;;;;;;;;;;5068803;28;20406;-59
2021/08/26 04:06:50;;;;;;;18.17;7.70;;;;;;;;;;5055426;28;20040;-60
2021/08/26 04:09:16;;;;;;;17.00;8.20;;;;;;;;;;5067426;28;20080;-58
2021/08/26 04:11:42;;;;;;;14.43;7.85;;;;;;;;;;5069396;28;20144;-59
2021/08/26 04:14:09;;;;;;;17.35;7.05;;;;;;;;;;5062334;28;20086;-59
2021/08/26 04:16:36;;;;;;;18.20;7.88;;;;;;;;;;5056930;28;20102;-59
2021/08/26 04:19:02;;;;;;;12.25;6.32;;;;;;;;;;5053356;28;20052;-59
2021/08/26 04:21:29;;;;;;;13.73;6.35;;;;;;;;;;5066830;28;20101;-60
2021/08/26 04:23:55;;;;;;;14.07;7.45;;;;;;;;;;5058322;28;20081;-59
2021/08/26 04:26:21;;;;;;;13.73;7.53;;;;;;;;;;5068273;28;20402;-59
2021/08/26 04:28:48;;;;;;;16.05;8.20;;;;;;;;;;5067500;28;20119;-60
2021/08/26 04:31:14;;;;;;;14.13;8.25;;;;;;;;;;5053281;28;20065;-59
2021/08/26 04:33:40;;;;;;;19.27;8.25;;;;;;;;;;5056038;28;20045;-56
2021/08/26 04:36:07;;;;;;;17.40;9.50;;;;;;;;;;5068572;28;20055;-58
2021/08/26 04:38:33;;;;;;;18.27;8.00;;;;;;;;;;5068171;28;20546;-58
2021/08/26 04:40:59;;;;;;;15.10;7.53;;;;;;;;;;5061854;28;20111;-58
2021/08/26 04:43:26;;;;;;;15.95;8.13;;;;;;;;;;5060102;28;20051;-59
2021/08/26 04:45:52;;;;;;;14.45;8.07;;;;;;;;;;5066014;28;20427;-60
2021/08/26 04:48:18;;;;;;;16.80;8.18;;;;;;;;;;5068539;28;20059;-60
2021/08/26 04:50:45;;;;;;;18.13;9.05;;;;;;;;;;5065812;28;20037;-60
2021/08/26 04:53:11;;;;;;;13.60;7.00;;;;;;;;;;5067591;28;20121;-59
2021/08/26 04:55:37;;;;;;;18.23;7.82;;;;;;;;;;5066764;28;20044;-60
2021/08/26 04:58:04;;;;;;;14.82;8.95;;;;;;;;;;5050751;28;20506;-59
2021/08/26 05:00:30;;;;;;;13.95;7.60;;;;;;;;;;5061407;28;20107;-59
2021/08/26 05:02:56;;;;;;;17.52;8.20;;;;;;;;;;5056543;28;20056;-60
2021/08/26 05:05:23;;;;;;;17.10;8.85;;;;;;;;;;5057996;28;20040;-60
2021/08/26 05:07:49;;;;;;;15.90;8.25;;;;;;;;;;5065390;28;20122;-60
2021/08/26 05:10:15;;;;;;;17.15;8.48;;;;;;;;;;5052005;28;20045;-60
2021/08/26 05:12:42;;;;;;;17.48;8.05;;;;;;;;;;5053087;28;20041;-61
2021/08/26 05:15:08;;;;;;;14.45;7.78;;;;;;;;;;5054467;28;20128;-60
2021/08/26 05:17:35;;;;;;;13.75;8.13;;;;;;;;;;5061973;28;20053;-61
2021/08/26 05:20:01;;;;;;;17.92;8.00;;;;;;;;;;5066861;28;20075;-60
2021/08/26 05:22:27;;;;;;;16.58;8.65;;;;;;;;;;5069837;28;20521;-59
2021/08/26 05:24:54;;;;;;;17.38;7.45;;;;;;;;;;5066960;28;20056;-59
2021/08/26 05:27:20;;;;;;;13.45;7.63;;;;;;;;;;5067464;28;20036;-60
2021/08/26 05:29:46;;;;;;;14.35;8.45;;;;;;;;;;5066455;28;20061;-60
2021/08/26 05:32:13;;;;;;;14.27;8.40;;;;;;;;;;5066722;28;20639;-60
2021/08/26 05:34:41;;;;;;;15.35;7.88;;;;;;;;;;5069568;28;20048;-59
2021/08/26 05:37:08;;;;;;;15.07;7.75;;;;;;;;;;5066456;28;20486;-60
2021/08/26 05:39:35;;;;;;;13.65;8.07;;;;;;;;;;5068645;28;20150;-60
2021/08/26 05:42:01;;;;;;;14.98;7.53;;;;;;;;;;5066658;28;20041;-59
2021/08/26 05:44:28;;;;;;;16.08;7.88;;;;;;;;;;5066250;28;20506;-59
2021/08/26 05:46:54;;;;;;;17.85;8.93;;;;;;;;;;5068697;28;20040;-60
2021/08/26 05:49:20;;;;;;;14.60;7.95;;;;;;;;;;5068738;28;20049;-60
2021/08/26 05:51:47;;;;;;;16.52;8.43;;;;;;;;;;5069994;28;20040;-59
2021/08/26 05:54:13;;;;;;;16.15;9.13;;;;;;;;;;5071182;28;20136;-59
2021/08/26 05:56:39;;;;;;;28.67;9.75;;;;;;;;;;5071894;28;20051;-60
2021/08/26 05:59:06;;;;;;;14.05;7.88;;;;;;;;;;5067877;28;20129;-59
2021/08/26 06:01:32;;;;;;;15.95;8.43;;;;;;;;;;5057447;28;20112;-60
2021/08/26 06:03:58;;;;;;;14.38;8.20;;;;;;;;;;5071783;28;20494;-60
2021/08/26 06:06:25;;;;;;;17.98;8.52;;;;;;;;;;5072487;28;20045;-60
2021/08/26 06:08:51;;;;;;;14.48;8.10;;;;;;;;;;5070380;28;20435;-60
2021/08/26 06:11:18;;;;;;;13.10;7.10;;;;;;;;;;5069909;28;20048;-59
2021/08/26 06:13:44;;;;;;;12.55;7.60;;;;;;;;;;5070177;28;20064;-60
2021/08/26 06:16:11;;;;;;;13.02;7.13;;;;;;;;;;5071229;28;20056;-60
2021/08/26 06:18:38;;;;;;;9.98;6.13;;;;;;;;;;5071579;28;20067;-60
2021/08/26 06:21:04;;;;;;;16.38;5.82;;;;;;;;;;5068503;28;20545;-59
2021/08/26 06:23:31;;;;;;;13.25;6.80;;;;;;;;;;5069451;28;20129;-60
2021/08/26 06:25:57;;;;;;;9.43;6.47;;;;;;;;;;5068844;28;20040;-61
2021/08/26 06:28:23;;;;;;;10.75;6.82;;;;;;;;;;5071976;28;20076;-60
2021/08/26 06:30:50;;;;;;;11.57;7.32;;;;;;;;;;5069606;28;20044;-61
2021/08/26 06:33:16;;;;;;;14.23;7.40;;;;;;;;;;5069745;28;20052;-60
2021/08/26 06:35:42;;;;;;;11.00;6.40;;;;;;;;;;5070826;28;20061;-60
2021/08/26 06:38:09;;;;;;;12.65;6.53;;;;;;;;;;5070362;28;20040;-60
2021/08/26 06:40:36;;;;;;;9.95;6.13;;;;;;;;;;5070697;28;20123;-61
2021/08/26 06:43:02;;;;;;;10.85;6.22;;;;;;;;;;5070457;28;20103;-61
2021/08/26 06:45:28;;;;;;;11.07;6.50;;;;;;;;;;5071948;28;20040;-61
2021/08/26 06:47:55;;;;;;;10.10;6.82;;;;;;;;;;5053691;28;20064;-61
2021/08/26 06:50:21;;;;;;;9.80;5.65;;;;;;;;;;5066030;28;20135;-62
2021/08/26 06:52:47;;;;;;;9.50;5.47;;;;;;;;;;5069271;28;20045;-62
2021/08/26 06:55:14;;;;;;;7.78;5.15;;;;;;;;;;5071835;28;20072;-62
2021/08/26 06:57:40;;;;;;;8.13;5.25;;;;;;;;;;5075710;28;20068;-63
2021/08/26 07:00:07;;;;;;;11.43;5.40;;;;;;;;;;5074071;28;20044;-62
2021/08/26 07:02:33;;;;;;;10.93;6.57;;;;;;;;;;5068437;28;20079;-61
2021/08/26 07:05:01;;;;;;;9.18;5.90;;;;;;;;;;5070599;28;20458;-62
2021/08/26 07:07:27;;;;;;;13.73;6.45;;;;;;;;;;5070821;28;20128;-62
2021/08/26 07:09:53;;;;;;;8.95;5.38;;;;;;;;;;5067697;28;20449;-62
2021/08/26 07:12:20;;;;;;;9.60;5.03;;;;;;;;;;5069406;28;20102;-62
2021/08/26 07:14:46;;;;;;;9.10;5.47;;;;;;;;;;5067832;28;20048;-62
2021/08/26 07:17:13;;;;;;;8.02;5.63;;;;;;;;;;5068093;28;20111;-62
2021/08/26 07:19:39;;;;;;;11.13;5.70;;;;;;;;;;5070240;28;20554;-63
2021/08/26 07:22:06;;;;;;;9.80;5.28;;;;;;;;;;5068635;28;20118;-60
2021/08/26 07:24:32;;;;;;;8.35;4.72;;;;;;;;;;5072346;28;20052;-60
2021/08/26 07:26:59;;;;;;;10.05;5.38;;;;;;;;;;5067574;28;20086;-62
2021/08/26 07:29:25;;;;;;;8.18;5.78;;;;;;;;;;5067653;28;20047;-62
2021/08/26 07:31:51;;;;;;;6.32;4.72;;;;;;;;;;5068515;28;20076;-61
2021/08/26 07:34:18;;;;;;;7.82;4.88;;;;;;;;;;5067861;28;20079;-62
2021/08/26 07:36:44;;;;;;;9.27;5.38;;;;;;;;;;5068077;28;20047;-62
2021/08/26 07:39:10;;;;;;;6.05;4.57;;;;;;;;;;5069960;28;20045;-63
2021/08/26 07:41:37;;;;;;;6.32;4.32;;;;;;;;;;5068715;28;20079;-61
2021/08/26 07:44:03;;;;;;;8.55;5.50;;;;;;;;;;5067522;28;20059;-62
2021/08/26 07:46:29;;;;;;;9.23;5.65;;;;;;;;;;5068541;28;20040;-62
2021/08/26 07:48:56;;;;;;;8.25;5.45;;;;;;;;;;5065730;28;21413;-63
2021/08/26 07:51:22;;;;;;;9.02;5.00;;;;;;;;;;5071627;28;20076;-62
2021/08/26 07:53:48;;;;;;;7.57;5.05;;;;;;;;;;5067048;28;20547;-62
2021/08/26 07:56:15;;;;;;;7.25;4.90;;;;;;;;;;5067402;28;20102;-61
2021/08/26 07:58:41;;;;;;;8.45;4.97;;;;;;;;;;5066348;28;20106;-63
2021/08/26 08:01:08;;;;;;;7.28;4.93;;;;;;;;;;5068181;28;20041;-62
2021/08/26 08:03:35;;;;;;;5.72;3.75;;;;;;;;;;5068524;28;20079;-61
2021/08/26 08:06:02;;;;;;;7.05;4.60;;;;;;;;;;5065888;28;20040;-61
2021/08/26 08:08:29;;;;;;;8.35;4.90;;;;;;;;;;5067786;28;20048;-62
2021/08/26 08:10:55;;;;;;;7.18;5.05;;;;;;;;;;5067980;28;20060;-62
2021/08/26 08:13:21;;;;;;;7.82;4.38;;;;;;;;;;5069519;28;20036;-62
2021/08/26 08:15:48;;;;;;;11.02;4.70;;;;;;;;;;5065574;28;21249;-60
2021/08/26 08:18:14;;;;;;;7.45;4.53;;;;;;;;;;5070734;28;20056;-62
2021/08/26 08:20:41;;;;;;;7.10;4.55;;;;;;;;;;5067061;28;20432;-63
2021/08/26 08:23:08;;;;;;;7.05;4.78;;;;;;;;;;5069683;28;20414;-63
2021/08/26 08:25:34;;;;;;;7.07;4.63;;;;;;;;;;5070072;28;20060;-63
2021/08/26 08:28:01;;;;;;;6.25;4.68;;;;;;;;;;5068596;28;20418;-63
2021/08/26 08:30:27;;;;;;;5.20;3.00;;;;;;;;;;5056702;28;20095;-63
2021/08/26 08:32:54;;;;;;;6.45;4.30;;;;;;;;;;5063775;28;20080;-62
2021/08/26 08:35:23;;;;;;;5.18;4.00;;;;;;;;;;5065346;28;20064;-63
2021/08/26 08:37:50;;;;;;;5.82;3.90;;;;;;;;;;5068386;28;20079;-63
2021/08/26 08:40:17;;;;;;;7.65;3.83;;;;;;;;;;5062861;28;20049;-63
2021/08/26 08:42:44;;;;;;;6.93;3.83;;;;;;;;;;5066821;28;20049;-61
2021/08/26 08:45:10;;;;;;;4.38;3.35;;;;;;;;;;5069707;28;20447;-63
2021/08/26 08:47:38;;;;;;;10.25;3.30;;;;;;;;;;5069619;28;20072;-64
2021/08/26 08:50:05;;;;;;;4.13;2.92;;;;;;;;;;5069941;28;20059;-63
2021/08/26 08:52:36;;;;;;;4.43;2.92;;;;;;;;;;5066891;28;20051;-64
2021/08/26 08:55:03;;;;;;;9.95;2.95;;;;;;;;;;5051268;28;20138;-65
2021/08/26 08:57:29;;;;;;;3.55;2.53;;;;;;;;;;5065971;28;20041;-64
2021/08/26 08:59:56;;;;;;;3.97;3.08;;;;;;;;;;5057796;28;20045;-64
2021/08/26 09:02:22;;;;;;;6.28;3.08;;;;;;;;;;5058505;28;20053;-64
2021/08/26 09:04:56;;;;;;;4.50;3.13;;;;;;;;;;5067113;28;20047;-65
2021/08/26 09:07:26;;;;;;;4.93;3.10;;;;;;;;;;5067170;28;20449;-65
2021/08/26 09:09:53;;;;;;;5.45;2.88;;;;;;;;;;5053744;28;20076;-65
2021/08/26 09:12:20;;;;;;;5.07;3.28;;;;;;;;;;5067527;28;20052;-66
2021/08/26 09:14:47;;;;;;;3.92;2.55;;;;;;;;;;5058408;28;20107;-65
2021/08/26 09:17:19;;;;;;;4.53;2.75;;;;;;;;;;5057188;28;20080;-65
2021/08/26 09:19:46;;;;;;;4.07;2.70;;;;;;;;;;5068027;28;20044;-65
2021/08/26 09:22:21;;;;;;;5.15;2.97;;;;;;;;;;5068100;28;20044;-65
2021/08/26 09:24:49;;;;;;;3.97;2.28;;;;;;;;;;5069729;28;20487;-66
2021/08/26 09:27:48;;;;;;;4.22;2.60;;;;;;;;;;5056671;28;20044;-62
2021/08/26 09:30:16;;;;;;;4.40;2.72;;;;;;;;;;5053102;28;20088;-66
2021/08/26 09:32:44;;;;;;;4.53;2.38;;;;;;;;;;5045484;28;20067;-66
2021/08/26 09:35:10;;;;;;;10.80;2.88;;;;;;;;;;5045942;28;20083;-66
2021/08/26 09:37:44;;;;;;;3.28;2.25;;;;;;;;;;5046715;28;20575;-63
2021/08/26 09:40:12;;;;;;;3.40;2.30;;;;;;;;;;5049368;28;20049;-63
2021/08/26 09:42:38;;;;;;;3.33;2.50;;;;;;;;;;5049441;28;20475;-63
2021/08/26 09:45:23;;;;;;;4.18;2.55;;;;;;;;;;5050379;28;20105;-66
2021/08/26 09:48:03;;;;;;;5.78;2.53;;;;;;;;;;5045332;28;20045;-66
2021/08/26 09:50:41;;;;;;;4.85;2.30;;;;;;;;;;5044775;28;20037;-66
2021/08/26 09:53:08;;;;;;;3.88;2.58;;;;;;;;;;5045296;28;20073;-66
2021/08/26 09:55:49;;;;;;;2.90;2.28;;;;;;;;;;5034257;28;20102;-62
2021/08/26 09:58:17;;;;;;;3.00;2.03;;;;;;;;;;5050311;28;20071;-63
2021/08/26 10:00:43;;;;;;;3.38;2.05;;;;;;;;;;5051473;28;20073;-66
2021/08/26 10:03:12;;;;;;;2.97;1.80;;;;;;;;;;5051022;28;20164;-63
2021/08/26 10:05:38;;;;;;;2.95;2.35;;;;;;;;;;5059115;28;20079;-65
2021/08/26 10:08:06;;;;;;;3.00;2.20;;;;;;;;;;5072898;28;20047;-64
2021/08/26 10:10:33;;;;;;;3.15;2.03;;;;;;;;;;5073002;28;20127;-64
2021/08/26 10:13:02;;;;;;;3.47;2.28;;;;;;;;;;5073024;28;20067;-64
2021/08/26 10:15:29;;;;;;;3.28;2.35;;;;;;;;;;5073125;28;20045;-64
2021/08/26 10:17:55;;;;;;;3.15;2.25;;;;;;;;;;5070727;28;20687;-64
2021/08/26 10:20:22;;;;;;;5.25;2.25;;;;;;;;;;5070765;28;20090;-64
2021/08/26 10:22:49;;;;;;;3.88;2.22;;;;;;;;;;5070719;28;20512;-63
2021/08/26 10:25:16;;;;;;;5.32;2.47;;;;;;;;;;5070591;28;20053;-61
2021/08/26 10:27:46;;;;;;;7.38;2.25;;;;;;;;;;5061310;28;20091;-61
2021/08/26 10:30:28;;;;;;;5.88;2.83;;;;;;;;;;5069350;28;20075;-62
2021/08/26 10:33:04;;;;;;;5.80;2.38;;;;;;;;;;5064731;28;20075;-61
2021/08/26 10:35:31;;;;;;;3.50;2.60;;;;;;;;;;5071242;28;20823;-61
2021/08/26 10:37:57;;;;;;;3.83;2.55;;;;;;;;;;5071844;28;20084;-61
2021/08/26 10:40:27;;;;;;;4.07;2.85;;;;;;;;;;5071078;28;20049;-61
2021/08/26 10:42:56;;;;;;;3.08;2.40;;;;;;;;;;5070697;28;20106;-61
2021/08/26 10:45:28;;;;;;;3.97;2.80;;;;;;;;;;5072432;28;20063;-61
2021/08/26 10:47:56;;;;;;;3.72;2.90;;;;;;;;;;5070387;28;20094;-62
2021/08/26 10:50:22;;;;;;;3.35;2.33;;;;;;;;;;5071454;28;20534;-61
2021/08/26 10:53:04;;;;;;;4.50;2.65;;;;;;;;;;5071139;28;20549;-61
2021/08/26 10:55:31;;;;;;;7.78;3.75;;;;;;;;;;5071427;28;20044;-61
2021/08/26 10:58:16;;;;;;;4.95;2.88;;;;;;;;;;5072180;28;20055;-62
2021/08/26 11:00:44;;;;;;;4.78;2.92;;;;;;;;;;5072553;28;20056;-62
2021/08/26 11:03:11;;;;;;;5.93;3.00;;;;;;;;;;5071828;28;20079;-61
2021/08/26 11:05:41;;;;;;;3.67;2.47;;;;;;;;;;5061729;28;20452;-61
2021/08/26 11:08:26;;;;;;;5.05;3.00;;;;;;;;;;5059352;28;20043;-62
2021/08/26 11:10:52;;;;;;;4.43;2.78;;;;;;;;;;5068445;28;20056;-62
2021/08/26 11:13:32;;;;;;;5.57;2.92;;;;;;;;;;5058521;28;20045;-61
2021/08/26 11:16:19;;;;;;;4.00;2.58;;;;;;;;;;5068075;28;20141;-62
2021/08/26 11:18:45;;;;;;;5.45;2.50;;;;;;;;;;5048341;28;20076;-62
2021/08/26 11:21:12;;;;;;;2.85;2.10;;;;;;;;;;5066048;28;20068;-62
2021/08/26 11:23:45;;;;;;;3.40;2.45;;;;;;;;;;5062097;28;20427;-62
2021/08/26 11:26:30;;;;;;;5.95;2.47;;;;;;;;;;5058073;28;20449;-60
2021/08/26 11:29:16;;;;;;;5.20;2.78;;;;;;;;;;5067619;28;20515;-62
2021/08/26 11:31:43;;;;;;;5.00;3.10;;;;;;;;;;5063024;28;20502;-61
2021/08/26 11:34:09;;;;;;;3.53;2.25;;;;;;;;;;5070373;28;20052;-60
2021/08/26 11:36:37;;;;;;;5.40;2.28;;;;;;;;;;5070481;28;20116;-60
2021/08/26 11:39:03;;;;;;;6.75;2.72;;;;;;;;;;5068351;28;20068;-62
2021/08/26 11:41:30;;;;;;;3.63;2.45;;;;;;;;;;5069166;28;20087;-61
2021/08/26 11:43:56;;;;;;;5.75;2.60;;;;;;;;;;5069070;28;20053;-62
2021/08/26 11:46:22;;;;;;;4.22;2.85;;;;;;;;;;5068648;28;20044;-62
2021/08/26 11:48:54;;;;;;;3.03;2.40;;;;;;;;;;5055434;28;20597;-62
2021/08/26 11:51:24;;;;;;;3.72;2.35;;;;;;;;;;5057552;28;20453;-62
2021/08/26 11:53:50;;;;;;;5.40;2.40;;;;;;;;;;5056830;28;20124;-62
2021/08/26 11:56:17;;;;;;;6.70;2.30;;;;;;;;;;5057176;28;20037;-62
2021/08/26 11:58:43;;;;;;;3.17;2.00;;;;;;;;;;5057919;28;20048;-62
2021/08/26 12:01:10;;;;;;;3.53;2.20;;;;;;;;;;5053291;28;20086;-62
2021/08/26 12:03:36;;;;;;;4.50;2.50;;;;;;;;;;5056214;28;20593;-61
2021/08/26 12:06:09;;;;;;;3.63;2.17;;;;;;;;;;5059430;28;20056;-62
2021/08/26 12:08:46;;;;;;;5.13;2.40;;;;;;;;;;5067131;28;20072;-62
2021/08/26 12:11:14;;;;;;;3.83;2.58;;;;;;;;;;5064383;28;20384;-61
2021/08/26 12:13:41;;;;;;;5.60;2.17;;;;;;;;;;5057358;28;20505;-61
2021/08/26 12:16:07;;;;;;;4.38;2.45;;;;;;;;;;5052495;28;20793;-61
2021/08/26 12:18:35;;;;;;;4.85;2.17;;;;;;;;;;5068495;28;20110;-61
2021/08/26 12:21:04;;;;;;;5.90;2.20;;;;;;;;;;5058101;28;20068;-61
2021/08/26 12:23:31;;;;;;;4.68;2.28;;;;;;;;;;5060602;28;20448;-62
2021/08/26 12:26:09;;;;;;;3.97;2.42;;;;;;;;;;5067369;28;20105;-62
2021/08/26 12:28:37;;;;;;;4.80;2.42;;;;;;;;;;5067531;28;20037;-62
2021/08/26 12:31:07;;;;;;;2.65;2.20;;;;;;;;;;5052849;28;20044;-64
2021/08/26 12:33:34;;;;;;;3.63;2.28;;;;;;;;;;5067217;28;20141;-63
2021/08/26 12:36:01;;;;;;;5.65;2.10;;;;;;;;;;5066663;28;20068;-63
2021/08/26 12:38:41;;;;;;;4.57;2.67;;;;;;;;;;5064531;28;20056;-63
2021/08/26 12:41:10;;;;;;;4.20;2.20;;;;;;;;;;5064210;28;20072;-62
2021/08/26 12:43:47;;;;;;;4.25;2.17;;;;;;;;;;5056639;28;20068;-62
2021/08/26 12:46:16;;;;;;;2.90;2.30;;;;;;;;;;5053739;28;20075;-62
2021/08/26 12:48:44;;;;;;;3.45;2.15;;;;;;;;;;5054598;28;20045;-63
2021/08/26 12:51:18;;;;;;;2.42;1.48;;;;;;;;;;5067020;28;20049;-61
2021/08/26 12:54:05;;;;;;;3.55;1.50;;;;;;;;;;5068818;28;20131;-62
2021/08/26 12:56:48;;;;;;;4.10;1.67;;;;;;;;;;5058373;28;20525;-62
2021/08/26 12:59:15;;;;;;;3.55;1.70;;;;;;;;;;5062766;28;20076;-62
2021/08/26 13:01:49;;;;;;;3.45;2.20;;;;;;;;;;5057102;28;20044;-62
2021/08/26 13:04:23;;;;;;;3.28;1.95;;;;;;;;;;5058254;28;20064;-62
2021/08/26 13:06:49;;;;;;;;;;;;;;;;;;5072752;28;20087;-62
2021/08/26 13:09:35;;;;;;;4.10;2.20;;;;;;;;;;5072476;28;20439;-62
2021/08/26 13:12:02;;;;;;;4.13;2.53;;;;;;;;;;5060558;28;20405;-58
2021/08/26 13:14:29;;;;;;;7.60;3.28;;;;;;;;;;5059893;28;20072;-59
2021/08/26 13:16:56;;;;;;;4.95;2.67;;;;;;;;;;5063981;28;20080;-59
2021/08/26 13:19:23;;;;;;;7.18;3.13;;;;;;;;;;5063940;28;20045;-60
2021/08/26 13:21:50;;;;;;;6.10;2.47;;;;;;;;;;5057344;28;20123;-60
2021/08/26 13:24:17;;;;;;;6.07;2.85;;;;;;;;;;5065076;28;20048;-61
2021/08/26 13:26:43;;;;;;;4.18;2.40;;;;;;;;;;5061254;28;20414;-61
2021/08/26 13:29:10;;;;;;;4.82;2.72;;;;;;;;;;5065097;28;20461;-61
2021/08/26 13:31:36;;;;;;;4.10;2.63;;;;;;;;;;5069658;28;20044;-61
2021/08/26 13:34:02;;;;;;;4.00;2.70;;;;;;;;;;5069761;28;20045;-61
2021/08/26 13:36:30;;;;;;;5.85;2.88;;;;;;;;;;5070876;28;20461;-62
2021/08/26 13:38:56;;;;;;;7.97;3.17;;;;;;;;;;5064696;28;20064;-61
2021/08/26 13:41:23;;;;;;;6.22;3.22;;;;;;;;;;5068973;28;20036;-62
2021/08/26 13:43:49;;;;;;;4.78;2.92;;;;;;;;;;5067794;28;20072;-62
2021/08/26 13:46:15;;;;;;;7.45;3.30;;;;;;;;;;5069274;28;20044;-62
2021/08/26 13:48:45;;;;;;;6.07;2.90;;;;;;;;;;5071308;28;20071;-62
2021/08/26 13:51:13;;;;;;;5.10;2.50;;;;;;;;;;5068501;28;20083;-62
2021/08/26 13:53:46;;;;;;;4.38;2.55;;;;;;;;;;5067725;28;20055;-62
2021/08/26 13:56:13;;;;;;;4.63;2.78;;;;;;;;;;5067389;28;20107;-62
2021/08/26 13:58:42;;;;;;;4.82;2.80;;;;;;;;;;5067521;28;20131;-62
2021/08/26 14:01:09;;;;;;;4.03;2.92;;;;;;;;;;5069716;28;20097;-61
2021/08/26 14:03:35;;;;;;;3.88;2.22;;;;;;;;;;5065049;28;20049;-62
2021/08/26 14:06:02;;;;;;;3.33;2.00;;;;;;;;;;5067613;28;20036;-62
2021/08/26 14:08:28;;;;;;;7.00;2.40;;;;;;;;;;5067388;28;20056;-62
2021/08/26 14:10:55;;;;;;;4.88;2.40;;;;;;;;;;5068549;28;20088;-62
2021/08/26 14:13:21;;;;;;;2.97;2.30;;;;;;;;;;5067231;28;20040;-62
2021/08/26 14:15:48;;;;;;;5.25;2.08;;;;;;;;;;5061387;28;20045;-60
2021/08/26 14:18:14;;;;;;;5.22;2.65;;;;;;;;;;5068867;28;20036;-61
2021/08/26 14:20:40;;;;;;;3.28;2.05;;;;;;;;;;5067379;28;20824;-61
2021/08/26 14:23:07;;;;;;;3.75;2.35;;;;;;;;;;5067509;28;20063;-61
2021/08/26 14:25:35;;;;;;;3.03;1.92;;;;;;;;;;5067344;28;20073;-61
2021/08/26 14:28:02;;;;;;;3.35;2.30;;;;;;;;;;5068161;28;20052;-61
2021/08/26 14:30:29;;;;;;;4.25;2.08;;;;;;;;;;5070398;28;20037;-61
2021/08/26 14:32:55;;;;;;;4.05;2.33;;;;;;;;;;5068205;28;20540;-60
2021/08/26 14:35:21;;;;;;;3.97;2.58;;;;;;;;;;5058080;28;20132;-60
2021/08/26 14:37:48;;;;;;;7.00;2.55;;;;;;;;;;5051516;28;20041;-60
2021/08/26 14:40:15;;;;;;;4.13;2.45;;;;;;;;;;5052720;28;20150;-61
2021/08/26 14:42:41;;;;;;;3.15;2.00;;;;;;;;;;5065604;28;20051;-61
2021/08/26 14:45:07;;;;;;;4.78;2.38;;;;;;;;;;5062382;28;20534;-61
2021/08/26 14:47:34;;;;;;;3.80;2.10;;;;;;;;;;5062091;28;20061;-60